Time;durP1;ratioP1;P1;durP2;ratioP2;P2;SDS_P1;SDS_P2;PMS_P1;PMS_P2;Temp;Humidity;BMP_temperature;BMP_pressure;BME280_temperature;BME280_humidity;BME280_pressure;Samples;Min_cycle;Max_cycle;Signal;HPM_P1;HPM_P2
2021/05/06 00:02:30;;;;;;;0.00;0.00;;;14.60;67.60;;;;;;4185912;28;20059;-45
2021/05/06 00:10:50;;;;;;;0.00;0.00;;;14.60;67.80;;;;;;4169615;28;20048;-45
2021/05/06 00:32:08;;;;;;;0.00;0.00;;;14.40;68.20;;;;;;4189988;28;20061;-50
2021/05/06 00:34:29;;;;;;;0.10;0.10;;;14.40;68.30;;;;;;4190716;28;20048;-45
2021/05/06 00:36:51;;;;;;;0.00;0.00;;;14.30;68.30;;;;;;4190617;28;20492;-46
2021/05/06 00:39:15;;;;;;;0.00;0.00;;;14.30;68.50;;;;;;4191024;28;20048;-45
2021/05/06 00:41:46;;;;;;;0.00;0.00;;;14.30;68.60;;;;;;4190150;28;20495;-45
2021/05/06 00:55:03;;;;;;;0.00;0.00;;;14.20;69.00;;;;;;4190176;28;20056;-47
2021/05/06 00:57:31;;;;;;;0.00;0.00;;;14.10;69.10;;;;;;4192351;28;20506;-50
2021/05/06 01:00:12;;;;;;;0.00;0.00;;;14.10;69.10;;;;;;4193242;28;20047;-49
2021/05/06 01:05:19;;;;;;;0.00;0.00;;;14.10;69.30;;;;;;4179424;28;20064;-45
2021/05/06 01:07:52;;;;;;;0.00;0.00;;;14.00;69.30;;;;;;4193003;28;20052;-45
2021/05/06 01:10:29;;;;;;;0.00;0.00;;;14.00;69.40;;;;;;4193084;28;20048;-45
2021/05/06 01:12:51;;;;;;;0.00;0.00;;;14.00;69.50;;;;;;4191715;28;20055;-45
2021/05/06 01:15:13;;;;;;;0.00;0.00;;;14.00;69.60;;;;;;4193331;28;20055;-44
2021/05/06 01:17:34;;;;;;;0.00;0.00;;;14.00;69.60;;;;;;4193220;28;20059;-44
2021/05/06 01:19:56;;;;;;;0.00;0.00;;;14.00;69.60;;;;;;4191424;28;20056;-45
2021/05/06 01:22:18;;;;;;;0.00;0.00;;;14.00;69.80;;;;;;4193083;28;20056;-46
2021/05/06 01:24:39;;;;;;;0.00;0.00;;;13.90;69.80;;;;;;4192865;28;20102;-46
2021/05/06 01:27:06;;;;;;;0.00;0.00;;;13.90;69.80;;;;;;4193249;28;20487;-45
2021/05/06 01:29:30;;;;;;;0.28;0.28;;;13.90;69.90;;;;;;4191691;28;20157;-46
2021/05/06 01:31:55;;;;;;;0.03;0.03;;;13.90;70.00;;;;;;4174893;28;20067;-48
2021/05/06 01:34:19;;;;;;;0.00;0.00;;;13.90;70.00;;;;;;4175162;28;20103;-46
2021/05/06 01:36:44;;;;;;;0.00;0.00;;;13.90;70.10;;;;;;4176340;28;20155;-49
2021/05/06 01:39:20;;;;;;;0.00;0.00;;;13.80;70.00;;;;;;4176358;28;20450;-46
2021/05/06 01:41:49;;;;;;;0.57;0.57;;;13.90;70.10;;;;;;4191653;28;20136;-46
2021/05/06 01:44:13;;;;;;;0.10;0.10;;;13.90;70.10;;;;;;4192461;28;20127;-50
2021/05/06 01:57:45;;;;;;;0.00;0.00;;;14.20;68.60;;;;;;4175636;28;20134;-45
2021/05/06 02:00:19;;;;;;;0.47;0.45;;;14.20;68.50;;;;;;4176009;28;20052;-45
2021/05/06 02:02:44;;;;;;;0.00;0.00;;;14.20;68.50;;;;;;4175781;28;20049;-47
2021/05/06 02:05:08;;;;;;;0.10;0.10;;;14.20;68.50;;;;;;4209550;28;20055;-46
2021/05/06 02:07:30;;;;;;;0.08;0.08;;;14.20;68.50;;;;;;4190953;28;20054;-45
2021/05/06 02:09:53;;;;;;;0.00;0.00;;;14.30;68.60;;;;;;4192416;28;20059;-45
2021/05/06 02:12:17;;;;;;;0.00;0.00;;;14.20;68.60;;;;;;4190841;28;20498;-48
2021/05/06 02:14:45;;;;;;;0.00;0.00;;;14.20;68.60;;;;;;4191557;28;20159;-46
2021/05/06 02:17:07;;;;;;;0.00;0.00;;;14.20;68.60;;;;;;4192182;28;20045;-45
2021/05/06 02:19:32;;;;;;;0.00;0.00;;;14.20;68.70;;;;;;4190654;28;20056;-49
2021/05/06 02:21:53;;;;;;;0.00;0.00;;;14.10;68.80;;;;;;4191855;28;20098;-47
2021/05/06 02:24:14;;;;;;;0.00;0.00;;;14.10;68.70;;;;;;4192303;28;20048;-51
2021/05/06 02:26:35;;;;;;;1.65;1.55;;;14.10;68.80;;;;;;4191935;28;20415;-45
2021/05/06 02:28:59;;;;;;;0.00;0.00;;;14.10;68.80;;;;;;4174118;28;20580;-46
2021/05/06 02:31:21;;;;;;;0.00;0.00;;;14.10;69.00;;;;;;4175457;28;20082;-51
2021/05/06 02:33:43;;;;;;;0.00;0.00;;;14.10;69.00;;;;;;4175091;28;20059;-50
2021/05/06 02:36:05;;;;;;;3.83;1.45;;;14.20;69.00;;;;;;4190683;28;20131;-48
2021/05/06 02:38:26;;;;;;;0.20;0.20;;;14.20;68.50;;;;;;4191650;28;20123;-49
2021/05/06 02:40:47;;;;;;;0.00;0.00;;;14.30;68.30;;;;;;4191840;28;20453;-48
2021/05/06 02:43:08;;;;;;;0.00;0.00;;;14.40;68.20;;;;;;4191687;28;20076;-51
2021/05/06 02:45:29;;;;;;;0.00;0.00;;;14.40;67.80;;;;;;4191504;28;20052;-51
2021/05/06 02:47:51;;;;;;;0.00;0.00;;;14.40;67.80;;;;;;4192043;28;20132;-48
2021/05/06 02:50:14;;;;;;;2.63;2.08;;;14.40;67.80;;;;;;4191495;28;20048;-51
2021/05/06 02:52:38;;;;;;;0.00;0.00;;;14.40;67.90;;;;;;4191821;28;20056;-45
2021/05/06 02:55:05;;;;;;;0.00;0.00;;;14.40;68.00;;;;;;4191512;28;20052;-45
2021/05/06 02:57:35;;;;;;;0.00;0.00;;;14.40;67.90;;;;;;4191564;28;20040;-45
2021/05/06 03:02:49;;;;;;;0.00;0.00;;;14.50;67.70;;;;;;4191409;28;20413;-45
2021/05/06 03:05:11;;;;;;;0.00;0.00;;;14.50;67.60;;;;;;4190112;28;20064;-45
2021/05/06 03:07:33;;;;;;;0.00;0.00;;;14.40;67.60;;;;;;4191471;28;20422;-45
2021/05/06 03:10:01;;;;;;;0.00;0.00;;;14.40;67.70;;;;;;4191112;28;20071;-45
2021/05/06 03:12:35;;;;;;;0.00;0.00;;;14.40;67.90;;;;;;4191184;28;20048;-46
2021/05/06 03:22:54;;;;;;;0.00;0.00;;;14.50;67.60;;;;;;4174729;28;20052;-45
2021/05/06 03:25:17;;;;;;;1.45;0.43;;;14.50;67.70;;;;;;4174408;28;20090;-45
2021/05/06 03:27:44;;;;;;;0.20;0.20;;;14.40;67.70;;;;;;4174702;28;20079;-46
2021/05/06 03:30:24;;;;;;;0.00;0.00;;;14.50;67.80;;;;;;4174435;28;20048;-45
2021/05/06 03:32:57;;;;;;;0.00;0.00;;;14.60;67.50;;;;;;4190843;28;20051;-45
2021/05/06 03:35:37;;;;;;;0.00;0.00;;;14.60;67.30;;;;;;4190801;28;20067;-45
2021/05/06 03:43:30;;;;;;;0.00;0.00;;;14.60;67.30;;;;;;4190989;28;20422;-47
2021/05/06 04:17:56;;;;;;;0.00;0.00;;;14.60;67.10;;;;;;4178051;28;20044;-45
2021/05/06 04:25:57;;;;;;;0.00;0.00;;;14.60;66.90;;;;;;4157072;28;20176;-48
2021/05/06 04:31:10;;;;;;;0.00;0.00;;;14.70;66.70;;;;;;4192762;28;20079;-45
2021/05/06 04:36:17;;;;;;;0.00;0.00;;;14.70;66.60;;;;;;4177113;28;20052;-45
2021/05/06 04:38:38;;;;;;;0.00;0.00;;;14.70;66.70;;;;;;4177105;28;20809;-46
2021/05/06 04:41:12;;;;;;;0.00;0.00;;;14.70;66.70;;;;;;4178215;28;20057;-45
2021/05/06 04:46:39;;;;;;;0.00;0.00;;;14.70;66.80;;;;;;4188188;28;20052;-47
2021/05/06 04:54:33;;;;;;;0.00;0.00;;;14.70;66.50;;;;;;4189857;28;20044;-46
2021/05/06 04:57:06;;;;;;;0.00;0.00;;;14.70;66.40;;;;;;4192631;28;20105;-47
2021/05/06 05:04:44;;;;;;;0.00;0.00;;;14.80;66.30;;;;;;4192325;28;20123;-46
2021/05/06 05:07:11;;;;;;;0.65;0.65;;;14.80;66.20;;;;;;4193202;28;20094;-45
2021/05/06 05:12:18;;;;;;;0.00;0.00;;;14.80;66.00;;;;;;4187264;28;20495;-47
2021/05/06 05:15:01;;;;;;;0.00;0.00;;;14.80;65.90;;;;;;4192972;28;20547;-44
2021/05/06 05:17:44;;;;;;;0.22;0.22;;;14.80;66.00;;;;;;4192601;28;20094;-45
2021/05/06 05:20:11;;;;;;;0.43;0.28;;;14.80;65.90;;;;;;4177363;28;20049;-44
2021/05/06 05:25:14;;;;;;;0.00;0.00;;;14.90;65.90;;;;;;4188365;28;20048;-45
2021/05/06 05:27:40;;;;;;;0.00;0.00;;;14.80;65.90;;;;;;4192954;28;20052;-45
2021/05/06 05:30:01;;;;;;;0.00;0.00;;;14.80;65.90;;;;;;4192728;28;20392;-45
2021/05/06 05:32:22;;;;;;;0.00;0.00;;;14.80;66.00;;;;;;4192392;28;20450;-46
2021/05/06 05:34:46;;;;;;;0.00;0.00;;;14.80;66.00;;;;;;4192776;28;20051;-45
2021/05/06 05:37:15;;;;;;;0.00;0.00;;;14.90;65.90;;;;;;4192459;28;20135;-52
2021/05/06 05:39:40;;;;;;;0.00;0.00;;;14.90;65.80;;;;;;4192775;28;20056;-46
2021/05/06 05:45:21;;;;;;;0.10;0.10;;;14.90;66.40;;;;;;4192416;28;20132;-45
2021/05/06 05:55:48;;;;;;;0.00;0.00;;;14.90;66.90;;;;;;4183174;28;20097;-45
2021/05/06 05:58:09;;;;;;;0.32;0.32;;;14.90;67.20;;;;;;4192510;28;20068;-46
2021/05/06 06:00:30;;;;;;;0.00;0.00;;;14.90;67.40;;;;;;4189816;28;20053;-44
2021/05/06 06:02:51;;;;;;;0.03;0.03;;;14.90;67.50;;;;;;4175624;28;20056;-45
2021/05/06 06:05:13;;;;;;;0.03;0.03;;;15.00;67.80;;;;;;4175290;28;20124;-44
2021/05/06 06:07:34;;;;;;;0.00;0.00;;;14.90;67.80;;;;;;4175834;28;20056;-45
2021/05/06 06:09:56;;;;;;;;;;;14.90;67.70;;;;;;4175926;28;20389;-46
2021/05/06 06:12:17;;;;;;;;;;;14.90;67.80;;;;;;4175774;28;20715;-44
2021/05/06 06:14:46;;;;;;;0.00;0.00;;;14.90;67.90;;;;;;4182167;28;19924;-45
2021/05/06 06:17:07;;;;;;;0.00;0.00;;;14.90;67.30;;;;;;4191640;28;20403;-46
2021/05/06 06:19:35;;;;;;;0.00;0.00;;;14.90;66.80;;;;;;4191848;28;20048;-45
2021/05/06 06:22:02;;;;;;;0.00;0.00;;;14.90;66.10;;;;;;4192012;28;20084;-45
2021/05/06 06:24:22;;;;;;;0.88;0.85;;;14.90;65.80;;;;;;4191580;28;20507;-44
2021/05/06 06:26:44;;;;;;;0.00;0.00;;;14.90;65.20;;;;;;4191808;28;20135;-45
2021/05/06 06:29:08;;;;;;;0.00;0.00;;;15.00;65.60;;;;;;4191604;28;20102;-46
2021/05/06 06:31:33;;;;;;;0.98;0.98;;;14.90;64.20;;;;;;4191915;28;20216;-45
2021/05/06 06:33:56;;;;;;;0.20;0.20;;;14.90;63.80;;;;;;4191080;28;20060;-48
2021/05/06 06:36:18;;;;;;;0.00;0.00;;;14.90;63.20;;;;;;4191657;28;20415;-47
2021/05/06 06:38:39;;;;;;;0.00;0.00;;;14.90;62.60;;;;;;4191712;28;20048;-47
2021/05/06 06:41:00;;;;;;;0.00;0.00;;;15.00;62.20;;;;;;4191716;28;20494;-45
2021/05/06 06:43:22;;;;;;;;;;;15.00;61.90;;;;;;4192275;28;20460;-45
2021/05/06 06:45:43;;;;;;;;;;;15.00;61.50;;;;;;4191798;28;19924;-52
2021/05/06 06:48:09;;;;;;;0.00;0.00;;;14.90;61.30;;;;;;4191024;28;20370;-44
2021/05/06 06:50:30;;;;;;;0.08;0.08;;;15.00;61.30;;;;;;4191399;28;20553;-47
2021/05/06 06:52:51;;;;;;;0.10;0.10;;;14.90;61.00;;;;;;4175096;28;20139;-44
2021/05/06 06:55:13;;;;;;;0.00;0.00;;;15.00;60.60;;;;;;4175017;28;20582;-45
2021/05/06 06:57:34;;;;;;;0.13;0.13;;;15.00;60.00;;;;;;4190391;28;20044;-44
2021/05/06 06:59:57;;;;;;;0.00;0.00;;;15.00;59.60;;;;;;4190621;28;20075;-48
2021/05/06 07:02:18;;;;;;;0.00;0.00;;;15.00;59.80;;;;;;4187086;28;20048;-45
2021/05/06 07:04:39;;;;;;;0.00;0.00;;;15.00;59.60;;;;;;4190749;28;20135;-46
2021/05/06 07:07:00;;;;;;;0.00;0.00;;;15.00;59.30;;;;;;4191045;28;20052;-43
2021/05/06 07:09:22;;;;;;;0.00;0.00;;;15.10;59.10;;;;;;4190837;28;20056;-46
2021/05/06 07:11:44;;;;;;;0.00;0.00;;;15.10;58.90;;;;;;4174756;28;20187;-43
2021/05/06 07:14:05;;;;;;;0.13;0.13;;;15.10;58.90;;;;;;4188254;28;20047;-44
2021/05/06 07:16:28;;;;;;;0.00;0.00;;;15.10;58.70;;;;;;4191193;28;20399;-43
2021/05/06 07:18:49;;;;;;;0.10;0.10;;;15.20;58.50;;;;;;4191177;28;20048;-44
2021/05/06 07:21:10;;;;;;;0.00;0.00;;;15.20;58.20;;;;;;4188412;28;20074;-44
2021/05/06 07:23:32;;;;;;;0.00;0.00;;;15.10;57.90;;;;;;4190815;28;20048;-43
2021/05/06 07:25:57;;;;;;;0.00;0.00;;;15.10;57.70;;;;;;4190779;28;20049;-45
2021/05/06 07:28:22;;;;;;;0.00;0.00;;;15.10;57.50;;;;;;4190870;28;20522;-46
2021/05/06 07:30:46;;;;;;;0.00;0.00;;;15.10;57.50;;;;;;4190859;28;20048;-43
2021/05/06 07:33:10;;;;;;;0.00;0.00;;;15.10;57.40;;;;;;4190881;28;20755;-44
2021/05/06 07:35:33;;;;;;;0.00;0.00;;;15.10;57.30;;;;;;4190746;28;20520;-44
2021/05/06 07:37:55;;;;;;;0.10;0.10;;;15.10;57.10;;;;;;4190597;28;20071;-44
2021/05/06 07:40:20;;;;;;;0.00;0.00;;;15.00;57.00;;;;;;4190440;28;20048;-44
2021/05/06 07:42:42;;;;;;;0.00;0.00;;;15.00;57.10;;;;;;4191020;28;20048;-45
2021/05/06 07:45:05;;;;;;;0.38;0.38;;;15.00;57.10;;;;;;4191110;28;20110;-44
2021/05/06 07:47:28;;;;;;;0.00;0.00;;;15.00;57.00;;;;;;4188945;28;20490;-46
2021/05/06 07:49:52;;;;;;;0.65;0.65;;;14.90;56.80;;;;;;4185769;28;20053;-44
2021/05/06 07:52:18;;;;;;;0.00;0.00;;;15.00;57.10;;;;;;4190986;28;20044;-43
2021/05/06 07:54:46;;;;;;;0.00;0.00;;;14.90;57.30;;;;;;4189647;28;20048;-43
2021/05/06 07:57:07;;;;;;;0.00;0.00;;;14.90;57.80;;;;;;4191110;28;20098;-44
2021/05/06 07:59:28;;;;;;;;;;;14.90;58.30;;;;;;4190940;28;20052;-45
2021/05/06 08:01:49;;;;;;;8.25;3.55;;;14.90;58.60;;;;;;4192289;28;19938;-44
2021/05/06 08:04:10;;;;;;;0.00;0.00;;;14.90;58.90;;;;;;4194236;28;20049;-45
2021/05/06 08:06:32;;;;;;;0.05;0.05;;;14.90;59.20;;;;;;4193725;28;20052;-44
2021/05/06 08:08:53;;;;;;;0.00;0.00;;;14.80;59.30;;;;;;4193646;28;20048;-44
2021/05/06 08:11:14;;;;;;;3.13;0.93;;;14.80;59.50;;;;;;4194112;28;20055;-44
2021/05/06 08:13:35;;;;;;;;;;;14.80;59.60;;;;;;4178192;28;20052;-42
2021/05/06 08:15:57;;;;;;;0.00;0.00;;;14.90;59.80;;;;;;4190526;28;20031;-43
2021/05/06 08:18:18;;;;;;;0.00;0.00;;;14.90;59.90;;;;;;4193876;28;20051;-43
2021/05/06 08:20:41;;;;;;;;;;;14.90;59.90;;;;;;4191489;28;20055;-44
2021/05/06 08:23:04;;;;;;;0.65;0.65;;;14.90;59.80;;;;;;4193781;28;19950;-43
2021/05/06 08:25:26;;;;;;;0.00;0.00;;;14.90;59.90;;;;;;4193644;28;20145;-44
2021/05/06 08:27:47;;;;;;;0.00;0.00;;;14.90;60.00;;;;;;4193844;28;20044;-44
2021/05/06 08:30:11;;;;;;;0.00;0.00;;;15.00;59.90;;;;;;4194007;28;20052;-44
2021/05/06 08:32:32;;;;;;;0.17;0.17;;;15.00;60.00;;;;;;4192959;28;20109;-44
2021/05/06 08:34:54;;;;;;;8.77;1.58;;;15.00;60.00;;;;;;4192676;28;20071;-44
2021/05/06 08:37:15;;;;;;;0.00;0.00;;;15.00;60.50;;;;;;4193279;28;20053;-45
2021/05/06 08:39:37;;;;;;;;;;;15.00;60.50;;;;;;4191218;28;20510;-43
2021/05/06 08:41:59;;;;;;;;;;;15.00;59.80;;;;;;4193913;28;20322;-43
2021/05/06 08:44:26;;;;;;;3.33;0.63;;;15.00;59.40;;;;;;4191953;28;19924;-44
2021/05/06 08:47:01;;;;;;;0.00;0.00;;;14.90;59.00;;;;;;4193969;28;20044;-43
2021/05/06 08:49:23;;;;;;;0.95;0.40;;;14.90;58.90;;;;;;4186945;28;20048;-44
2021/05/06 08:51:44;;;;;;;0.10;0.10;;;14.90;59.00;;;;;;4192713;28;20045;-47
2021/05/06 08:54:05;;;;;;;0.00;0.00;;;14.90;59.10;;;;;;4192703;28;20045;-43
2021/05/06 08:56:27;;;;;;;;;;;14.90;59.00;;;;;;4193670;28;20149;-45
2021/05/06 08:58:48;;;;;;;0.00;0.00;;;14.80;58.70;;;;;;4193240;28;19924;-43
2021/05/06 09:01:09;;;;;;;2.92;1.55;;;14.80;58.90;;;;;;4177155;28;20045;-44
2021/05/06 09:03:32;;;;;;;1.25;1.25;;;14.80;58.90;;;;;;4193325;28;20140;-44
2021/05/06 09:06:18;;;;;;;0.00;0.00;;;14.80;58.90;;;;;;4193087;28;20408;-43
2021/05/06 09:08:40;;;;;;;0.00;0.00;;;14.70;59.20;;;;;;4185933;28;20052;-45
2021/05/06 09:11:02;;;;;;;0.20;0.20;;;14.60;58.30;;;;;;4191905;28;20147;-45
2021/05/06 09:13:28;;;;;;;0.00;0.00;;;14.60;58.50;;;;;;4183456;28;20699;-45
2021/05/06 09:15:49;;;;;;;0.43;0.43;;;14.60;58.80;;;;;;4189331;28;20056;-44
2021/05/06 09:18:33;;;;;;;3.75;2.05;;;14.60;59.60;;;;;;4192989;28;20131;-46
2021/05/06 09:20:56;;;;;;;0.13;0.13;;;14.70;59.00;;;;;;4192621;28;20045;-44
2021/05/06 09:23:17;;;;;;;0.00;0.00;;;14.80;59.00;;;;;;4192773;28;20040;-46
2021/05/06 09:25:39;;;;;;;0.30;0.28;;;14.80;59.00;;;;;;4191680;28;20125;-44
2021/05/06 09:28:09;;;;;;;0.00;0.00;;;14.80;59.00;;;;;;4192981;28;20771;-44
2021/05/06 09:30:31;;;;;;;1.30;0.75;;;14.90;59.10;;;;;;4192693;28;20086;-44
2021/05/06 09:33:00;;;;;;;0.00;0.00;;;14.90;58.80;;;;;;4188796;28;20052;-46
2021/05/06 09:35:21;;;;;;;0.00;0.00;;;15.00;58.80;;;;;;4191774;28;20055;-44
2021/05/06 09:37:44;;;;;;;0.00;0.00;;;15.00;58.90;;;;;;4192772;28;20048;-44
2021/05/06 09:40:07;;;;;;;0.00;0.00;;;15.00;59.00;;;;;;4192589;28;20052;-50
2021/05/06 09:42:39;;;;;;;0.00;0.00;;;15.00;59.70;;;;;;4192416;28;20090;-43
2021/05/06 09:45:00;;;;;;;0.00;0.00;;;15.00;59.10;;;;;;4187045;28;20060;-44
2021/05/06 09:47:22;;;;;;;0.00;0.00;;;15.00;59.30;;;;;;4188760;28;20056;-44
2021/05/06 09:49:44;;;;;;;1.02;1.02;;;15.00;59.40;;;;;;4192631;28;20048;-43
2021/05/06 09:52:08;;;;;;;0.00;0.00;;;14.90;59.30;;;;;;4192143;28;20047;-43
2021/05/06 09:54:30;;;;;;;0.00;0.00;;;14.90;59.30;;;;;;4192401;28;20056;-44
2021/05/06 09:56:56;;;;;;;1.10;0.75;;;14.90;59.10;;;;;;4175882;28;20059;-46
2021/05/06 09:59:23;;;;;;;0.00;0.00;;;14.80;59.00;;;;;;4184170;28;20051;-44
2021/05/06 10:01:44;;;;;;;0.70;0.70;;;14.80;59.00;;;;;;4184379;28;20060;-44
2021/05/06 10:04:18;;;;;;;0.00;0.00;;;14.80;59.00;;;;;;4192558;28;20135;-44
2021/05/06 10:06:40;;;;;;;0.00;0.00;;;14.70;58.90;;;;;;4192150;28;20418;-44
2021/05/06 10:09:02;;;;;;;;;;;14.70;59.00;;;;;;4192917;28;20053;-44
2021/05/06 10:11:23;;;;;;;0.00;0.00;;;14.60;58.90;;;;;;4192493;28;19946;-43
2021/05/06 10:13:45;;;;;;;0.00;0.00;;;14.60;59.00;;;;;;4191873;28;20050;-43
2021/05/06 10:16:07;;;;;;;0.00;0.00;;;14.50;58.90;;;;;;4191828;28;20048;-44
2021/05/06 10:18:29;;;;;;;0.52;0.47;;;14.50;59.10;;;;;;4190564;28;20508;-52
2021/05/06 10:20:51;;;;;;;0.00;0.00;;;14.40;59.20;;;;;;4191382;28;20418;-45
2021/05/06 10:23:15;;;;;;;0.00;0.00;;;14.40;59.30;;;;;;4176549;28;20056;-44
2021/05/06 10:25:38;;;;;;;0.25;0.15;;;14.40;59.50;;;;;;4175748;28;20052;-44
2021/05/06 10:28:00;;;;;;;0.00;0.00;;;14.30;59.50;;;;;;4178199;28;20052;-45
2021/05/06 10:30:22;;;;;;;0.00;0.00;;;14.30;59.50;;;;;;4191845;28;20053;-46
2021/05/06 10:32:45;;;;;;;0.00;0.00;;;14.30;59.70;;;;;;4191356;28;20059;-44
2021/05/06 10:35:09;;;;;;;0.00;0.00;;;14.30;59.80;;;;;;4191008;28;20725;-43
2021/05/06 10:37:33;;;;;;;0.10;0.10;;;14.30;59.70;;;;;;4191603;28;20410;-44
2021/05/06 10:39:57;;;;;;;0.00;0.00;;;14.30;59.70;;;;;;4191722;28;20056;-45
2021/05/06 10:42:35;;;;;;;0.40;0.40;;;14.30;59.80;;;;;;4191698;28;20127;-43
2021/05/06 10:44:59;;;;;;;0.00;0.00;;;14.30;59.90;;;;;;4191237;28;20068;-43
2021/05/06 10:47:53;;;;;;;0.00;0.00;;;14.30;60.00;;;;;;4189197;28;20423;-46
2021/05/06 10:50:15;;;;;;;0.00;0.00;;;14.30;60.30;;;;;;4190800;28;20049;-44
2021/05/06 10:52:38;;;;;;;0.00;0.00;;;14.40;60.50;;;;;;4191406;28;20048;-43
2021/05/06 10:54:58;;;;;;;0.75;0.75;;;14.40;60.50;;;;;;4191842;28;20052;-45
2021/05/06 10:57:32;;;;;;;0.10;0.10;;;14.50;61.40;;;;;;4191576;28;20071;-43
2021/05/06 10:59:54;;;;;;;0.75;0.75;;;14.50;61.30;;;;;;4174913;28;20048;-46
2021/05/06 11:02:49;;;;;;;0.47;0.47;;;14.60;61.20;;;;;;4174853;28;20499;-44
2021/05/06 11:05:13;;;;;;;0.85;0.35;;;14.60;61.20;;;;;;4173703;28;20037;-45
2021/05/06 11:07:34;;;;;;;0.47;0.47;;;14.60;61.30;;;;;;4174689;28;20044;-44
2021/05/06 11:10:02;;;;;;;0.75;0.75;;;14.60;61.50;;;;;;4174851;28;20056;-45
2021/05/06 11:12:33;;;;;;;0.00;0.00;;;14.60;61.80;;;;;;4174223;28;20044;-43
2021/05/06 11:15:33;;;;;;;0.00;0.00;;;14.60;62.00;;;;;;4175006;28;20415;-44
2021/05/06 11:17:56;;;;;;;0.03;0.03;;;14.60;62.20;;;;;;4190818;28;20052;-44
2021/05/06 11:20:40;;;;;;;0.00;0.00;;;14.60;62.40;;;;;;4191301;28;20067;-44
2021/05/06 11:23:01;;;;;;;0.00;0.00;;;14.60;62.50;;;;;;4191074;28;20048;-43
2021/05/06 11:25:51;;;;;;;0.82;0.65;;;14.60;62.60;;;;;;4191341;28;20044;-44
2021/05/06 11:28:54;;;;;;;0.00;0.00;;;14.60;62.80;;;;;;4191073;28;20505;-45
2021/05/06 11:31:16;;;;;;;0.00;0.00;;;14.60;62.80;;;;;;4171617;28;20047;-46
2021/05/06 11:33:37;;;;;;;0.32;0.32;;;14.60;62.90;;;;;;4190666;28;20391;-44
2021/05/06 11:36:01;;;;;;;0.00;0.00;;;14.70;63.10;;;;;;4191171;28;20129;-44
2021/05/06 11:38:22;;;;;;;0.00;0.00;;;14.70;63.00;;;;;;4191132;28;20048;-45
2021/05/06 11:40:46;;;;;;;0.00;0.00;;;14.70;63.00;;;;;;4191672;28;20495;-44
2021/05/06 11:43:08;;;;;;;0.00;0.00;;;14.70;63.00;;;;;;4190914;28;20048;-44
2021/05/06 11:45:31;;;;;;;0.30;0.30;;;14.70;63.00;;;;;;4191221;28;20105;-44
2021/05/06 11:47:54;;;;;;;0.00;0.00;;;14.80;63.00;;;;;;4191422;28;20053;-43
2021/05/06 11:50:34;;;;;;;0.00;0.00;;;14.80;63.00;;;;;;4174558;28;20049;-45
2021/05/06 11:52:58;;;;;;;0.00;0.00;;;14.80;62.90;;;;;;4174240;28;20099;-46
2021/05/06 11:55:40;;;;;;;0.00;0.00;;;14.80;62.80;;;;;;4175083;28;20430;-52
2021/05/06 11:58:02;;;;;;;0.00;0.00;;;14.90;62.80;;;;;;4174077;28;20135;-50
2021/05/06 12:00:29;;;;;;;0.00;0.00;;;14.90;62.70;;;;;;4174526;28;20519;-44
2021/05/06 12:02:55;;;;;;;0.05;0.05;;;14.90;62.60;;;;;;4175512;28;20056;-44
2021/05/06 12:05:17;;;;;;;0.55;0.55;;;14.90;62.60;;;;;;4190617;28;20094;-48
2021/05/06 12:07:38;;;;;;;0.00;0.00;;;14.90;62.70;;;;;;4190411;28;20499;-46
2021/05/06 12:10:08;;;;;;;0.47;0.47;;;14.90;62.80;;;;;;4190888;28;20059;-47
2021/05/06 12:12:29;;;;;;;0.10;0.10;;;14.90;62.90;;;;;;4190357;28;20135;-49
2021/05/06 12:14:49;;;;;;;0.00;0.00;;;14.90;62.90;;;;;;4190860;28;20059;-50
2021/05/06 12:17:18;;;;;;;0.00;0.00;;;15.00;62.80;;;;;;4191112;28;20060;-45
2021/05/06 12:19:41;;;;;;;0.13;0.13;;;14.90;62.80;;;;;;4191041;28;20045;-53
2021/05/06 12:22:02;;;;;;;0.00;0.00;;;14.90;63.80;;;;;;4190955;28;20422;-43
2021/05/06 12:24:30;;;;;;;0.00;0.00;;;15.00;63.00;;;;;;4189420;28;20071;-48
2021/05/06 12:26:51;;;;;;;0.00;0.00;;;14.90;63.00;;;;;;4190576;28;20056;-47
2021/05/06 12:29:23;;;;;;;0.00;0.00;;;14.90;63.00;;;;;;4190564;28;20565;-45
2021/05/06 12:31:49;;;;;;;0.00;0.00;;;14.90;62.90;;;;;;4190881;28;20055;-44
2021/05/06 12:34:18;;;;;;;0.22;0.22;;;14.90;63.90;;;;;;4190327;28;20608;-44
2021/05/06 12:36:51;;;;;;;0.00;0.00;;;14.90;63.10;;;;;;4190806;28;20465;-46
2021/05/06 12:39:12;;;;;;;0.00;0.00;;;14.90;63.20;;;;;;4190552;28;20083;-47
2021/05/06 12:41:33;;;;;;;1.92;1.83;;;14.90;63.40;;;;;;4190621;28;20494;-44
2021/05/06 12:43:54;;;;;;;0.17;0.17;;;14.90;63.50;;;;;;4190870;28;20418;-46
2021/05/06 12:46:21;;;;;;;0.15;0.15;;;14.80;63.40;;;;;;4191512;28;20037;-46
2021/05/06 12:48:52;;;;;;;0.30;0.30;;;14.80;63.40;;;;;;4192773;28;20052;-44
2021/05/06 12:51:15;;;;;;;0.00;0.00;;;14.70;63.60;;;;;;4193461;28;20060;-44
2021/05/06 12:53:36;;;;;;;0.93;0.55;;;14.70;63.60;;;;;;4176792;28;20048;-45
2021/05/06 12:55:57;;;;;;;0.35;0.35;;;14.70;64.10;;;;;;4176936;28;20048;-45
2021/05/06 12:58:25;;;;;;;0.00;0.00;;;14.60;64.00;;;;;;4187183;28;20447;-44
2021/05/06 13:01:01;;;;;;;0.00;0.00;;;14.60;64.10;;;;;;4192760;28;20056;-43
2021/05/06 13:03:28;;;;;;;0.10;0.10;;;14.60;64.10;;;;;;4187207;28;20037;-43
2021/05/06 13:05:49;;;;;;;0.00;0.00;;;14.60;64.30;;;;;;4191112;28;20060;-44
2021/05/06 13:08:11;;;;;;;;;;;14.60;64.30;;;;;;4193785;28;20051;-47
2021/05/06 13:10:35;;;;;;;0.00;0.00;;;14.50;64.30;;;;;;4193266;28;19928;-43
2021/05/06 13:12:57;;;;;;;0.00;0.00;;;14.50;64.30;;;;;;4191824;28;20126;-51
2021/05/06 13:15:18;;;;;;;0.35;0.35;;;14.50;64.20;;;;;;4193102;28;20048;-50
2021/05/06 13:17:39;;;;;;;0.00;0.00;;;14.40;64.20;;;;;;4192754;28;20048;-46
2021/05/06 13:20:22;;;;;;;0.00;0.00;;;14.40;64.20;;;;;;4192274;28;20059;-45
2021/05/06 13:23:01;;;;;;;0.00;0.00;;;14.40;64.20;;;;;;4193077;28;20048;-46
2021/05/06 13:25:45;;;;;;;0.00;0.00;;;14.40;64.20;;;;;;4192869;28;20076;-47
2021/05/06 13:28:06;;;;;;;0.00;0.00;;;14.40;64.20;;;;;;4191749;28;20044;-44
2021/05/06 13:30:31;;;;;;;0.00;0.00;;;14.30;64.20;;;;;;4192881;28;20052;-47
2021/05/06 13:32:52;;;;;;;0.00;0.00;;;14.30;64.30;;;;;;4191445;28;20045;-48
2021/05/06 13:35:16;;;;;;;0.00;0.00;;;14.30;64.30;;;;;;4192896;28;20071;-45
2021/05/06 13:37:42;;;;;;;0.20;0.20;;;14.30;64.30;;;;;;4192123;28;20101;-45
2021/05/06 13:40:05;;;;;;;0.47;0.47;;;14.30;65.10;;;;;;4192525;28;20053;-45
2021/05/06 13:42:27;;;;;;;0.00;0.00;;;14.30;64.10;;;;;;4192608;28;20044;-47
2021/05/06 13:44:53;;;;;;;0.00;0.00;;;14.30;64.20;;;;;;4190932;28;20044;-45
2021/05/06 13:47:14;;;;;;;0.00;0.00;;;14.30;64.00;;;;;;4193035;28;20048;-46
2021/05/06 13:49:36;;;;;;;0.00;0.00;;;14.30;63.80;;;;;;4192859;28;20052;-48
2021/05/06 13:51:59;;;;;;;0.00;0.00;;;14.30;63.70;;;;;;4192121;28;20060;-45
2021/05/06 13:54:21;;;;;;;0.20;0.20;;;14.30;64.40;;;;;;4175980;28;20487;-48
2021/05/06 13:56:42;;;;;;;0.00;0.00;;;14.30;63.40;;;;;;4184159;28;20076;-44
2021/05/06 13:59:05;;;;;;;0.20;0.20;;;14.30;63.40;;;;;;4192418;28;20055;-44
2021/05/06 14:01:26;;;;;;;0.00;0.00;;;14.30;63.50;;;;;;4192258;28;20072;-48
2021/05/06 14:03:47;;;;;;;0.20;0.20;;;14.50;63.60;;;;;;4192149;28;20041;-52
2021/05/06 14:06:09;;;;;;;0.00;0.00;;;14.90;62.90;;;;;;4192021;28;20046;-44
2021/05/06 14:08:30;;;;;;;4.43;0.80;;;15.40;61.60;;;;;;4192110;28;20048;-46
2021/05/06 14:10:51;;;;;;;0.00;0.00;;;15.90;59.30;;;;;;4192049;28;20095;-44
2021/05/06 14:13:12;;;;;;;0.00;0.00;;;16.30;58.50;;;;;;4191754;28;20060;-43
2021/05/06 14:15:34;;;;;;;0.00;0.00;;;16.60;57.60;;;;;;4192088;28;20048;-50
2021/05/06 14:17:56;;;;;;;0.00;0.00;;;16.90;57.10;;;;;;4191430;28;20064;-52
2021/05/06 14:20:20;;;;;;;0.00;0.00;;;17.10;57.30;;;;;;4190584;28;21755;-47
2021/05/06 14:22:41;;;;;;;0.30;0.30;;;17.30;56.70;;;;;;4192289;28;20045;-45
2021/05/06 14:25:02;;;;;;;0.05;0.05;;;17.50;56.30;;;;;;4191804;28;20059;-44
2021/05/06 14:27:22;;;;;;;0.10;0.10;;;17.60;55.90;;;;;;4191809;28;20052;-43
2021/05/06 14:29:43;;;;;;;0.75;0.75;;;17.80;55.30;;;;;;4191420;28;20778;-44
2021/05/06 14:32:05;;;;;;;0.00;0.00;;;17.90;55.00;;;;;;4191838;28;20737;-44
2021/05/06 14:34:26;;;;;;;0.08;0.08;;;17.90;55.00;;;;;;4191724;28;20052;-43
2021/05/06 14:36:47;;;;;;;0.00;0.00;;;17.90;55.20;;;;;;4189373;28;20045;-44
2021/05/06 14:39:08;;;;;;;0.00;0.00;;;17.90;55.40;;;;;;4191546;28;20098;-51
2021/05/06 14:41:30;;;;;;;0.00;0.00;;;17.90;55.20;;;;;;4191879;28;20048;-44
2021/05/06 14:43:51;;;;;;;;;;;18.00;55.30;;;;;;4192213;28;20411;-44
2021/05/06 14:46:12;;;;;;;0.00;0.00;;;18.10;55.50;;;;;;4191693;28;19955;-43
2021/05/06 14:48:34;;;;;;;0.00;0.00;;;18.00;55.50;;;;;;4191715;28;20049;-43
2021/05/06 14:50:55;;;;;;;0.00;0.00;;;17.90;55.60;;;;;;4191437;28;20052;-48
2021/05/06 14:53:16;;;;;;;0.00;0.00;;;17.80;55.70;;;;;;4191327;28;20509;-44
2021/05/06 14:55:38;;;;;;;;;;;17.70;56.00;;;;;;4192145;28;20055;-45
2021/05/06 14:57:59;;;;;;;0.00;0.00;;;17.60;56.20;;;;;;4188742;28;20008;-47